sensor_id;sensor_type;location;lat;lon;timestamp;pressure;altitude;pressure_sealevel;temperature;humidity
55685;BME280;41883;49.544;8.646;2023-03-25T00:02:14;99783.56;;;9.55;nan
55685;BME280;41883;49.544;8.646;2023-03-25T00:04:39;99782.75;;;9.54;nan
55685;BME280;41883;49.544;8.646;2023-03-25T00:07:05;99785.06;;;9.49;nan
55685;BME280;41883;49.544;8.646;2023-03-25T00:09:31;99778.78;;;9.42;nan
55685;BME280;41883;49.544;8.646;2023-03-25T00:11:56;99785.03;;;9.41;nan
55685;BME280;41883;49.544;8.646;2023-03-25T00:14:21;99796.72;;;9.39;nan
55685;BME280;41883;49.544;8.646;2023-03-25T00:16:49;99800.84;;;9.33;nan
55685;BME280;41883;49.544;8.646;2023-03-25T00:19:17;99795.56;;;9.25;nan
55685;BME280;41883;49.544;8.646;2023-03-25T00:21:46;99802.63;;;9.24;nan
55685;BME280;41883;49.544;8.646;2023-03-25T00:24:14;99807.56;;;9.19;nan
55685;BME280;41883;49.544;8.646;2023-03-25T00:26:42;99815.28;;;9.12;nan
55685;BME280;41883;49.544;8.646;2023-03-25T00:29:08;99821.22;;;9.06;nan
55685;BME280;41883;49.544;8.646;2023-03-25T00:31:33;99818.88;;;8.95;nan
55685;BME280;41883;49.544;8.646;2023-03-25T00:33:58;99817.03;;;8.87;nan
55685;BME280;41883;49.544;8.646;2023-03-25T00:36:26;99826.22;;;8.83;nan
55685;BME280;41883;49.544;8.646;2023-03-25T00:38:52;99821.78;;;8.84;nan
55685;BME280;41883;49.544;8.646;2023-03-25T00:41:22;99815.69;;;8.83;nan
55685;BME280;41883;49.544;8.646;2023-03-25T00:43:52;99817.16;;;8.86;nan
55685;BME280;41883;49.544;8.646;2023-03-25T00:46:17;99819.47;;;8.89;nan
55685;BME280;41883;49.544;8.646;2023-03-25T00:48:43;99809.47;;;8.92;nan
55685;BME280;41883;49.544;8.646;2023-03-25T00:51:08;99802.69;;;8.90;nan
55685;BME280;41883;49.544;8.646;2023-03-25T00:53:37;99811.75;;;8.87;nan
55685;BME280;41883;49.544;8.646;2023-03-25T00:56:03;99816.22;;;8.87;nan
55685;BME280;41883;49.544;8.646;2023-03-25T00:58:29;99817.84;;;8.88;nan
55685;BME280;41883;49.544;8.646;2023-03-25T01:00:54;99819.34;;;8.90;nan
55685;BME280;41883;49.544;8.646;2023-03-25T01:03:24;99814.75;;;8.92;nan
55685;BME280;41883;49.544;8.646;2023-03-25T01:05:50;99803.72;;;8.97;nan
55685;BME280;41883;49.544;8.646;2023-03-25T01:08:19;99800.94;;;8.99;nan
55685;BME280;41883;49.544;8.646;2023-03-25T01:10:52;99791.88;;;9.01;nan
55685;BME280;41883;49.544;8.646;2023-03-25T01:13:18;99792.84;;;9.00;nan
55685;BME280;41883;49.544;8.646;2023-03-25T01:15:44;99790.88;;;9.02;nan
55685;BME280;41883;49.544;8.646;2023-03-25T01:18:10;99784.44;;;9.05;nan
55685;BME280;41883;49.544;8.646;2023-03-25T01:20:35;99789.88;;;9.03;nan
55685;BME280;41883;49.544;8.646;2023-03-25T01:23:00;99783.47;;;9.06;nan
55685;BME280;41883;49.544;8.646;2023-03-25T01:25:26;99781.47;;;9.08;nan
55685;BME280;41883;49.544;8.646;2023-03-25T01:27:52;99779.53;;;9.10;nan
55685;BME280;41883;49.544;8.646;2023-03-25T01:30:17;99777.69;;;9.10;nan
55685;BME280;41883;49.544;8.646;2023-03-25T01:32:43;99780.50;;;9.09;nan
55685;BME280;41883;49.544;8.646;2023-03-25T01:35:08;99776.69;;;9.03;nan
55685;BME280;41883;49.544;8.646;2023-03-25T01:37:36;99759.91;;;9.04;nan
55685;BME280;41883;49.544;8.646;2023-03-25T01:40:03;99755.91;;;9.00;nan
55685;BME280;41883;49.544;8.646;2023-03-25T01:42:34;99752.81;;;9.05;nan
55685;BME280;41883;49.544;8.646;2023-03-25T01:45:13;99768.78;;;9.03;nan
55685;BME280;41883;49.544;8.646;2023-03-25T01:47:39;99764.63;;;8.84;nan
55685;BME280;41883;49.544;8.646;2023-03-25T01:50:05;99763.72;;;8.67;nan
55685;BME280;41883;49.544;8.646;2023-03-25T01:52:38;99770.25;;;8.55;nan
55685;BME280;41883;49.544;8.646;2023-03-25T01:55:05;99774.50;;;8.48;nan
55685;BME280;41883;49.544;8.646;2023-03-25T01:57:30;99781.38;;;8.41;nan
55685;BME280;41883;49.544;8.646;2023-03-25T01:59:56;99793.31;;;8.35;nan
55685;BME280;41883;49.544;8.646;2023-03-25T02:02:21;99795.44;;;8.32;nan
55685;BME280;41883;49.544;8.646;2023-03-25T02:04:51;99811.06;;;8.25;nan
55685;BME280;41883;49.544;8.646;2023-03-25T02:07:23;99823.00;;;8.19;nan
55685;BME280;41883;49.544;8.646;2023-03-25T02:09:55;99793.38;;;8.17;nan
55685;BME280;41883;49.544;8.646;2023-03-25T02:12:21;99792.31;;;8.10;nan
55685;BME280;41883;49.544;8.646;2023-03-25T02:14:46;99779.44;;;7.99;nan
55685;BME280;41883;49.544;8.646;2023-03-25T02:32:54;99775.78;;;7.56;nan
55685;BME280;41883;49.544;8.646;2023-03-25T02:40:45;99803.34;;;7.34;nan
55685;BME280;41883;49.544;8.646;2023-03-25T02:43:18;99797.88;;;7.27;nan
55685;BME280;41883;49.544;8.646;2023-03-25T02:45:47;99795.81;;;7.21;nan
55685;BME280;41883;49.544;8.646;2023-03-25T02:48:15;99811.91;;;7.18;nan
55685;BME280;41883;49.544;8.646;2023-03-25T02:50:45;99806.09;;;7.14;nan
55685;BME280;41883;49.544;8.646;2023-03-25T02:53:13;99799.47;;;7.10;nan
55685;BME280;41883;49.544;8.646;2023-03-25T02:55:41;99807.66;;;7.07;nan
55685;BME280;41883;49.544;8.646;2023-03-25T02:58:10;99802.56;;;7.06;nan
55685;BME280;41883;49.544;8.646;2023-03-25T03:00:35;99804.50;;;7.04;nan
55685;BME280;41883;49.544;8.646;2023-03-25T03:03:03;99815.84;;;7.04;nan
55685;BME280;41883;49.544;8.646;2023-03-25T03:05:29;99800.84;;;7.14;nan
55685;BME280;41883;49.544;8.646;2023-03-25T03:08:01;99799.03;;;7.15;nan
55685;BME280;41883;49.544;8.646;2023-03-25T03:10:45;99800.09;;;7.22;nan
55685;BME280;41883;49.544;8.646;2023-03-25T03:13:19;99808.66;;;7.24;nan
55685;BME280;41883;49.544;8.646;2023-03-25T03:15:52;99793.25;;;7.29;nan
55685;BME280;41883;49.544;8.646;2023-03-25T03:18:23;99801.41;;;7.36;nan
55685;BME280;41883;49.544;8.646;2023-03-25T03:21:01;99796.69;;;7.39;nan
55685;BME280;41883;49.544;8.646;2023-03-25T03:23:43;99792.47;;;7.47;nan
55685;BME280;41883;49.544;8.646;2023-03-25T03:26:19;99788.72;;;7.49;nan
55685;BME280;41883;49.544;8.646;2023-03-25T03:28:48;99789.91;;;7.55;nan
55685;BME280;41883;49.544;8.646;2023-03-25T03:31:28;99781.06;;;7.56;nan
55685;BME280;41883;49.544;8.646;2023-03-25T03:33:56;99780.59;;;7.60;nan
55685;BME280;41883;49.544;8.646;2023-03-25T03:36:27;99783.88;;;7.62;nan
55685;BME280;41883;49.544;8.646;2023-03-25T03:38:59;99790.28;;;7.60;nan
55685;BME280;41883;49.544;8.646;2023-03-25T03:41:25;99795.53;;;7.60;nan
55685;BME280;41883;49.544;8.646;2023-03-25T03:44:01;99793.91;;;7.59;nan
55685;BME280;41883;49.544;8.646;2023-03-25T03:46:28;99791.13;;;7.60;nan
55685;BME280;41883;49.544;8.646;2023-03-25T03:48:56;99798.03;;;7.61;nan
55685;BME280;41883;49.544;8.646;2023-03-25T03:53:53;99795.41;;;7.61;nan
55685;BME280;41883;49.544;8.646;2023-03-25T03:56:23;99795.25;;;7.63;nan
55685;BME280;41883;49.544;8.646;2023-03-25T03:58:50;99800.53;;;7.63;nan
55685;BME280;41883;49.544;8.646;2023-03-25T04:03:52;99804.28;;;7.60;nan
55685;BME280;41883;49.544;8.646;2023-03-25T04:06:24;99810.66;;;7.58;nan
55685;BME280;41883;49.544;8.646;2023-03-25T04:11:23;99826.16;;;7.61;nan
55685;BME280;41883;49.544;8.646;2023-03-25T04:13:51;99821.03;;;7.59;nan
55685;BME280;41883;49.544;8.646;2023-03-25T04:16:18;99815.31;;;7.64;nan
55685;BME280;41883;49.544;8.646;2023-03-25T04:18:43;99814.50;;;7.63;nan
55685;BME280;41883;49.544;8.646;2023-03-25T04:21:11;99814.50;;;7.63;nan
55685;BME280;41883;49.544;8.646;2023-03-25T04:23:39;99805.78;;;7.63;nan
55685;BME280;41883;49.544;8.646;2023-03-25T04:26:05;99806.31;;;7.66;nan
55685;BME280;41883;49.544;8.646;2023-03-25T04:28:30;99805.03;;;7.71;nan
55685;BME280;41883;49.544;8.646;2023-03-25T04:30:55;99806.97;;;7.69;nan
55685;BME280;41883;49.544;8.646;2023-03-25T04:33:24;99808.63;;;7.70;nan
55685;BME280;41883;49.544;8.646;2023-03-25T04:35:49;99815.69;;;7.69;nan
55685;BME280;41883;49.544;8.646;2023-03-25T04:38:15;99821.63;;;7.71;nan
55685;BME280;41883;49.544;8.646;2023-03-25T04:40:42;99819.00;;;7.71;nan
55685;BME280;41883;49.544;8.646;2023-03-25T04:43:10;99821.50;;;7.73;nan
55685;BME280;41883;49.544;8.646;2023-03-25T04:45:36;99824.28;;;7.71;nan
55685;BME280;41883;49.544;8.646;2023-03-25T04:48:01;99823.28;;;7.72;nan
55685;BME280;41883;49.544;8.646;2023-03-25T04:50:29;99827.44;;;7.75;nan
55685;BME280;41883;49.544;8.646;2023-03-25T04:52:56;99823.97;;;7.74;nan
55685;BME280;41883;49.544;8.646;2023-03-25T04:55:27;99821.50;;;7.73;nan
55685;BME280;41883;49.544;8.646;2023-03-25T04:57:54;99824.28;;;7.71;nan
55685;BME280;41883;49.544;8.646;2023-03-25T05:00:20;99823.81;;;7.76;nan
55685;BME280;41883;49.544;8.646;2023-03-25T05:02:46;99830.91;;;7.75;nan
55685;BME280;41883;49.544;8.646;2023-03-25T05:05:16;99831.84;;;7.74;nan
55685;BME280;41883;49.544;8.646;2023-03-25T05:07:48;99821.50;;;7.73;nan
55685;BME280;41883;49.544;8.646;2023-03-25T05:10:16;99817.75;;;7.75;nan
55685;BME280;41883;49.544;8.646;2023-03-25T05:12:42;99821.63;;;7.71;nan
55685;BME280;41883;49.544;8.646;2023-03-25T05:15:08;99812.63;;;7.74;nan
55685;BME280;41883;49.544;8.646;2023-03-25T05:17:33;99819.16;;;7.70;nan
55685;BME280;41883;49.544;8.646;2023-03-25T05:19:59;99824.34;;;7.61;nan
55685;BME280;41883;49.544;8.646;2023-03-25T05:22:24;99836.13;;;7.57;nan
55685;BME280;41883;49.544;8.646;2023-03-25T05:24:49;99834.25;;;7.50;nan
55685;BME280;41883;49.544;8.646;2023-03-25T05:27:17;99832.88;;;7.45;nan
55685;BME280;41883;49.544;8.646;2023-03-25T05:29:44;99841.91;;;7.43;nan
55685;BME280;41883;49.544;8.646;2023-03-25T05:32:09;99841.63;;;7.46;nan
55685;BME280;41883;49.544;8.646;2023-03-25T05:34:37;99839.00;;;7.46;nan
55685;BME280;41883;49.544;8.646;2023-03-25T05:37:02;99850.03;;;7.50;nan
55685;BME280;41883;49.544;8.646;2023-03-25T05:39:27;99857.34;;;7.56;nan
55685;BME280;41883;49.544;8.646;2023-03-25T05:41:53;99840.28;;;7.60;nan
55685;BME280;41883;49.544;8.646;2023-03-25T05:44:19;99857.28;;;7.65;nan
55685;BME280;41883;49.544;8.646;2023-03-25T05:46:45;99845.47;;;7.70;nan
55685;BME280;41883;49.544;8.646;2023-03-25T05:49:10;99846.16;;;7.72;nan
55685;BME280;41883;49.544;8.646;2023-03-25T05:51:35;99838.09;;;7.73;nan
55685;BME280;41883;49.544;8.646;2023-03-25T05:54:04;99845.56;;;7.78;nan
55685;BME280;41883;49.544;8.646;2023-03-25T05:56:34;99853.00;;;7.82;nan
55685;BME280;41883;49.544;8.646;2023-03-25T05:59:00;99868.47;;;7.85;nan
55685;BME280;41883;49.544;8.646;2023-03-25T06:01:26;99852.38;;;7.88;nan
55685;BME280;41883;49.544;8.646;2023-03-25T06:03:51;99862.91;;;7.88;nan
55685;BME280;41883;49.544;8.646;2023-03-25T06:06:16;99873.31;;;7.90;nan
55685;BME280;41883;49.544;8.646;2023-03-25T06:08:45;99876.94;;;7.89;nan
55685;BME280;41883;49.544;8.646;2023-03-25T06:11:10;99869.84;;;7.90;nan
55685;BME280;41883;49.544;8.646;2023-03-25T06:13:38;99872.16;;;7.93;nan
55685;BME280;41883;49.544;8.646;2023-03-25T06:16:06;99875.03;;;7.99;nan
55685;BME280;41883;49.544;8.646;2023-03-25T06:18:32;99875.41;;;8.04;nan
55685;BME280;41883;49.544;8.646;2023-03-25T06:20:57;99877.44;;;8.11;nan
55685;BME280;41883;49.544;8.646;2023-03-25T06:23:23;99883.22;;;8.14;nan
55685;BME280;41883;49.544;8.646;2023-03-25T06:25:50;99886.38;;;8.18;nan
55685;BME280;41883;49.544;8.646;2023-03-25T06:28:16;99890.66;;;8.19;nan
55685;BME280;41883;49.544;8.646;2023-03-25T06:30:45;99889.53;;;8.21;nan
55685;BME280;41883;49.544;8.646;2023-03-25T06:33:10;99883.44;;;8.21;nan
55685;BME280;41883;49.544;8.646;2023-03-25T06:35:37;99881.03;;;8.27;nan
55685;BME280;41883;49.544;8.646;2023-03-25T06:38:03;99881.03;;;8.27;nan
55685;BME280;41883;49.544;8.646;2023-03-25T06:40:28;99888.16;;;8.35;nan
55685;BME280;41883;49.544;8.646;2023-03-25T06:42:53;99889.97;;;8.35;nan
55685;BME280;41883;49.544;8.646;2023-03-25T06:45:18;99888.84;;;8.37;nan
55685;BME280;41883;49.544;8.646;2023-03-25T06:47:43;99893.28;;;8.37;nan
55685;BME280;41883;49.544;8.646;2023-03-25T06:50:09;99885.78;;;8.42;nan
55685;BME280;41883;49.544;8.646;2023-03-25T06:52:34;99891.91;;;8.50;nan
55685;BME280;41883;49.544;8.646;2023-03-25T06:55:00;99885.91;;;8.58;nan
55685;BME280;41883;49.544;8.646;2023-03-25T06:57:25;99885.25;;;8.64;nan
55685;BME280;41883;49.544;8.646;2023-03-25T06:59:50;99886.81;;;8.75;nan
55685;BME280;41883;49.544;8.646;2023-03-25T07:02:15;99877.47;;;8.81;nan
55685;BME280;41883;49.544;8.646;2023-03-25T07:04:40;99873.25;;;8.96;nan
55685;BME280;41883;49.544;8.646;2023-03-25T07:07:06;99864.84;;;9.43;nan
55685;BME280;41883;49.544;8.646;2023-03-25T07:09:32;99859.53;;;10.02;nan
55685;BME280;41883;49.544;8.646;2023-03-25T07:11:57;99862.66;;;10.63;nan
55685;BME280;41883;49.544;8.646;2023-03-25T07:14:22;99859.81;;;11.20;nan
55685;BME280;41883;49.544;8.646;2023-03-25T07:16:47;99853.06;;;11.49;nan
55685;BME280;41883;49.544;8.646;2023-03-25T07:19:13;99860.03;;;11.73;nan
55685;BME280;41883;49.544;8.646;2023-03-25T07:21:38;99851.63;;;12.16;nan
55685;BME280;41883;49.544;8.646;2023-03-25T07:24:03;99852.25;;;12.56;nan
55685;BME280;41883;49.544;8.646;2023-03-25T07:26:29;99849.78;;;12.84;nan
55685;BME280;41883;49.544;8.646;2023-03-25T07:28:54;99841.75;;;13.07;nan
55685;BME280;41883;49.544;8.646;2023-03-25T07:31:19;99840.06;;;13.06;nan
55685;BME280;41883;49.544;8.646;2023-03-25T07:33:45;99843.56;;;12.91;nan
55685;BME280;41883;49.544;8.646;2023-03-25T07:36:10;99831.66;;;13.17;nan
55685;BME280;41883;49.544;8.646;2023-03-25T07:38:36;99833.09;;;13.34;nan
55685;BME280;41883;49.544;8.646;2023-03-25T07:41:05;99824.81;;;13.59;nan
55685;BME280;41883;49.544;8.646;2023-03-25T07:43:31;99815.41;;;14.06;nan
55685;BME280;41883;49.544;8.646;2023-03-25T07:45:57;99825.50;;;14.39;nan
55685;BME280;41883;49.544;8.646;2023-03-25T07:48:22;99830.63;;;13.91;nan
55685;BME280;41883;49.544;8.646;2023-03-25T07:50:49;99829.59;;;14.41;nan
55685;BME280;41883;49.544;8.646;2023-03-25T07:53:14;99826.88;;;14.56;nan
55685;BME280;41883;49.544;8.646;2023-03-25T07:55:40;99839.41;;;14.62;nan
55685;BME280;41883;49.544;8.646;2023-03-25T07:58:05;99831.50;;;14.76;nan
55685;BME280;41883;49.544;8.646;2023-03-25T08:00:30;99834.44;;;14.94;nan
55685;BME280;41883;49.544;8.646;2023-03-25T08:02:56;99825.09;;;15.05;nan
55685;BME280;41883;49.544;8.646;2023-03-25T08:05:21;99824.41;;;15.38;nan
55685;BME280;41883;49.544;8.646;2023-03-25T08:07:47;99837.97;;;15.63;nan
55685;BME280;41883;49.544;8.646;2023-03-25T08:10:13;99833.47;;;15.50;nan
55685;BME280;41883;49.544;8.646;2023-03-25T08:12:42;99834.72;;;15.06;nan
55685;BME280;41883;49.544;8.646;2023-03-25T08:15:08;99843.47;;;14.09;nan
55685;BME280;41883;49.544;8.646;2023-03-25T08:17:34;99844.66;;;13.85;nan
55685;BME280;41883;49.544;8.646;2023-03-25T08:20:03;99849.78;;;13.65;nan
55685;BME280;41883;49.544;8.646;2023-03-25T08:22:29;99851.97;;;13.40;nan
55685;BME280;41883;49.544;8.646;2023-03-25T08:24:55;99857.66;;;13.07;nan
55685;BME280;41883;49.544;8.646;2023-03-25T08:27:20;99856.75;;;12.70;nan
55685;BME280;41883;49.544;8.646;2023-03-25T08:29:46;99855.78;;;12.33;nan
55685;BME280;41883;49.544;8.646;2023-03-25T08:32:18;99863.22;;;12.52;nan
55685;BME280;41883;49.544;8.646;2023-03-25T08:34:44;99857.66;;;12.62;nan
55685;BME280;41883;49.544;8.646;2023-03-25T08:37:09;99854.63;;;12.65;nan
55685;BME280;41883;49.544;8.646;2023-03-25T08:39:35;99865.72;;;12.84;nan
55685;BME280;41883;49.544;8.646;2023-03-25T08:42:04;99854.81;;;12.93;nan
55685;BME280;41883;49.544;8.646;2023-03-25T08:44:29;99850.28;;;12.87;nan
55685;BME280;41883;49.544;8.646;2023-03-25T08:46:54;99851.25;;;12.86;nan
55685;BME280;41883;49.544;8.646;2023-03-25T08:49:20;99843.13;;;12.88;nan
55685;BME280;41883;49.544;8.646;2023-03-25T08:51:45;99849.97;;;13.63;nan
55685;BME280;41883;49.544;8.646;2023-03-25T08:54:10;99842.06;;;15.04;nan
55685;BME280;41883;49.544;8.646;2023-03-25T08:56:36;99841.66;;;15.00;nan
55685;BME280;41883;49.544;8.646;2023-03-25T08:59:04;99841.97;;;14.84;nan
55685;BME280;41883;49.544;8.646;2023-03-25T09:01:29;99838.13;;;14.58;nan
55685;BME280;41883;49.544;8.646;2023-03-25T09:03:55;99842.53;;;14.44;nan
55685;BME280;41883;49.544;8.646;2023-03-25T09:06:21;99831.56;;;14.05;nan
55685;BME280;41883;49.544;8.646;2023-03-25T09:08:48;99845.75;;;13.69;nan
55685;BME280;41883;49.544;8.646;2023-03-25T09:11:13;99841.66;;;13.66;nan
55685;BME280;41883;49.544;8.646;2023-03-25T09:13:42;99846.38;;;13.49;nan
55685;BME280;41883;49.544;8.646;2023-03-25T09:16:07;99832.22;;;13.27;nan
55685;BME280;41883;49.544;8.646;2023-03-25T09:18:33;99843.38;;;13.08;nan
55685;BME280;41883;49.544;8.646;2023-03-25T09:21:01;99830.03;;;12.86;nan
55685;BME280;41883;49.544;8.646;2023-03-25T09:23:27;99840.56;;;12.65;nan
55685;BME280;41883;49.544;8.646;2023-03-25T09:25:52;99835.94;;;12.29;nan
55685;BME280;41883;49.544;8.646;2023-03-25T09:28:17;99838.59;;;12.06;nan
55685;BME280;41883;49.544;8.646;2023-03-25T09:30:43;99839.44;;;11.83;nan
55685;BME280;41883;49.544;8.646;2023-03-25T09:33:08;99837.69;;;11.67;nan
55685;BME280;41883;49.544;8.646;2023-03-25T09:35:34;99836.56;;;11.39;nan
55685;BME280;41883;49.544;8.646;2023-03-25T09:38:00;99846.63;;;11.12;nan
55685;BME280;41883;49.544;8.646;2023-03-25T09:40:25;99844.94;;;10.72;nan
55685;BME280;41883;49.544;8.646;2023-03-25T09:50:38;99842.66;;;10.19;nan
55685;BME280;41883;49.544;8.646;2023-03-25T09:53:05;99836.88;;;10.08;nan
55685;BME280;41883;49.544;8.646;2023-03-25T09:55:33;99849.63;;;10.04;nan
55685;BME280;41883;49.544;8.646;2023-03-25T09:58:01;99842.00;;;10.17;nan
55685;BME280;41883;49.544;8.646;2023-03-25T10:00:29;99841.06;;;10.35;nan
55685;BME280;41883;49.544;8.646;2023-03-25T10:03:00;99849.88;;;10.75;nan
55685;BME280;41883;49.544;8.646;2023-03-25T10:05:41;99843.91;;;11.83;nan
55685;BME280;41883;49.544;8.646;2023-03-25T10:08:21;99845.81;;;13.24;nan
55685;BME280;41883;49.544;8.646;2023-03-25T10:18:49;99844.91;;;14.33;nan
55685;BME280;41883;49.544;8.646;2023-03-25T10:21:23;99847.78;;;15.49;nan
55685;BME280;41883;49.544;8.646;2023-03-25T10:26:25;99852.22;;;15.83;nan
55685;BME280;41883;49.544;8.646;2023-03-25T10:28:53;99843.50;;;15.55;nan
55685;BME280;41883;49.544;8.646;2023-03-25T10:31:21;99838.59;;;15.65;nan
55685;BME280;41883;49.544;8.646;2023-03-25T10:33:55;99849.47;;;15.02;nan
55685;BME280;41883;49.544;8.646;2023-03-25T10:36:37;99844.28;;;14.31;nan
55685;BME280;41883;49.544;8.646;2023-03-25T10:39:05;99847.16;;;13.86;nan
55685;BME280;41883;49.544;8.646;2023-03-25T10:41:37;99845.06;;;13.81;nan
55685;BME280;41883;49.544;8.646;2023-03-25T10:44:07;99843.03;;;13.62;nan
55685;BME280;41883;49.544;8.646;2023-03-25T10:46:34;99833.13;;;13.56;nan
55685;BME280;41883;49.544;8.646;2023-03-25T10:49:03;99820.28;;;13.38;nan
55685;BME280;41883;49.544;8.646;2023-03-25T10:51:29;99819.75;;;13.13;nan
55685;BME280;41883;49.544;8.646;2023-03-25T10:53:56;99808.72;;;12.80;nan
55685;BME280;41883;49.544;8.646;2023-03-25T10:56:25;99805.88;;;12.37;nan
55685;BME280;41883;49.544;8.646;2023-03-25T10:58:52;99788.91;;;12.08;nan
55685;BME280;41883;49.544;8.646;2023-03-25T11:01:19;99779.50;;;11.82;nan
55685;BME280;41883;49.544;8.646;2023-03-25T11:03:48;99786.28;;;11.62;nan
55685;BME280;41883;49.544;8.646;2023-03-25T11:06:23;99816.81;;;11.18;nan
55685;BME280;41883;49.544;8.646;2023-03-25T11:08:57;99831.25;;;10.68;nan
55685;BME280;41883;49.544;8.646;2023-03-25T11:11:30;99851.25;;;9.97;nan
55685;BME280;41883;49.544;8.646;2023-03-25T11:13:56;99856.97;;;9.51;nan
55685;BME280;41883;49.544;8.646;2023-03-25T11:16:21;99872.91;;;9.33;nan
55685;BME280;41883;49.544;8.646;2023-03-25T11:18:47;99897.44;;;9.18;nan
55685;BME280;41883;49.544;8.646;2023-03-25T11:21:13;99884.88;;;9.20;nan
55685;BME280;41883;49.544;8.646;2023-03-25T11:26:05;99897.88;;;9.55;nan
55685;BME280;41883;49.544;8.646;2023-03-25T11:28:35;99886.44;;;9.89;nan
55685;BME280;41883;49.544;8.646;2023-03-25T11:31:21;99894.00;;;9.92;nan
55685;BME280;41883;49.544;8.646;2023-03-25T11:36:31;99917.50;;;10.61;nan
55685;BME280;41883;49.544;8.646;2023-03-25T11:39:00;99913.38;;;10.58;nan
55685;BME280;41883;49.544;8.646;2023-03-25T11:41:33;99921.66;;;10.47;nan
55685;BME280;41883;49.544;8.646;2023-03-25T11:43:59;99901.34;;;10.39;nan
55685;BME280;41883;49.544;8.646;2023-03-25T11:46:25;99910.91;;;10.32;nan
55685;BME280;41883;49.544;8.646;2023-03-25T11:48:50;99909.56;;;10.36;nan
55685;BME280;41883;49.544;8.646;2023-03-25T11:51:20;99916.22;;;10.49;nan
55685;BME280;41883;49.544;8.646;2023-03-25T11:53:46;99911.56;;;10.51;nan
55685;BME280;41883;49.544;8.646;2023-03-25T11:56:14;99897.66;;;10.65;nan
55685;BME280;41883;49.544;8.646;2023-03-25T11:58:41;99902.59;;;10.84;nan
55685;BME280;41883;49.544;8.646;2023-03-25T12:01:16;99895.97;;;10.97;nan
55685;BME280;41883;49.544;8.646;2023-03-25T12:03:43;99901.06;;;11.07;nan
55685;BME280;41883;49.544;8.646;2023-03-25T12:06:16;99907.13;;;11.15;nan
55685;BME280;41883;49.544;8.646;2023-03-25T12:08:47;99908.44;;;11.27;nan
55685;BME280;41883;49.544;8.646;2023-03-25T12:11:13;99908.72;;;11.33;nan
55685;BME280;41883;49.544;8.646;2023-03-25T12:16:43;99900.41;;;12.06;nan
55685;BME280;41883;49.544;8.646;2023-03-25T12:27:07;99889.47;;;12.62;nan
55685;BME280;41883;49.544;8.646;2023-03-25T12:29:51;99899.03;;;13.01;nan
55685;BME280;41883;49.544;8.646;2023-03-25T12:32:41;99887.69;;;13.07;nan
55685;BME280;41883;49.544;8.646;2023-03-25T12:43:09;99875.16;;;13.16;nan
55685;BME280;41883;49.544;8.646;2023-03-25T12:45:37;99877.44;;;13.19;nan
55685;BME280;41883;49.544;8.646;2023-03-25T12:53:22;99862.97;;;12.77;nan
55685;BME280;41883;49.544;8.646;2023-03-25T12:55:55;99851.38;;;12.63;nan
55685;BME280;41883;49.544;8.646;2023-03-25T13:08:23;99845.00;;;11.97;nan
55685;BME280;41883;49.544;8.646;2023-03-25T13:10:56;99853.34;;;11.77;nan
55685;BME280;41883;49.544;8.646;2023-03-25T13:13:23;99856.06;;;12.00;nan
55685;BME280;41883;49.544;8.646;2023-03-25T13:16:01;99855.50;;;12.28;nan
55685;BME280;41883;49.544;8.646;2023-03-25T13:18:28;99846.50;;;12.52;nan
55685;BME280;41883;49.544;8.646;2023-03-25T13:21:02;99842.81;;;12.68;nan
55685;BME280;41883;49.544;8.646;2023-03-25T13:23:29;99838.53;;;12.82;nan
55685;BME280;41883;49.544;8.646;2023-03-25T13:26:07;99829.19;;;13.01;nan
55685;BME280;41883;49.544;8.646;2023-03-25T13:29:09;99837.81;;;13.03;nan
55685;BME280;41883;49.544;8.646;2023-03-25T13:31:30;99839.09;;;13.07;nan
55685;BME280;41883;49.544;8.646;2023-03-25T13:34:03;99832.56;;;13.24;nan
55685;BME280;41883;49.544;8.646;2023-03-25T13:36:40;99831.34;;;13.27;nan
55685;BME280;41883;49.544;8.646;2023-03-25T13:39:30;99832.66;;;13.31;nan
55685;BME280;41883;49.544;8.646;2023-03-25T13:41:58;99817.00;;;13.36;nan
55685;BME280;41883;49.544;8.646;2023-03-25T13:44:35;99826.03;;;13.42;nan
55685;BME280;41883;49.544;8.646;2023-03-25T13:52:01;99816.28;;;13.64;nan
55685;BME280;41883;49.544;8.646;2023-03-25T13:54:28;99805.69;;;13.49;nan
55685;BME280;41883;49.544;8.646;2023-03-25T14:02:15;99830.47;;;13.56;nan
55685;BME280;41883;49.544;8.646;2023-03-25T14:14:46;99823.88;;;13.67;nan
55685;BME280;41883;49.544;8.646;2023-03-25T14:17:14;99812.91;;;13.76;nan
55685;BME280;41883;49.544;8.646;2023-03-25T14:19:42;99825.94;;;13.50;nan
55685;BME280;41883;49.544;8.646;2023-03-25T14:22:20;99832.44;;;13.47;nan
55685;BME280;41883;49.544;8.646;2023-03-25T14:24:46;99840.66;;;13.52;nan
55685;BME280;41883;49.544;8.646;2023-03-25T14:27:23;99827.59;;;13.72;nan
55685;BME280;41883;49.544;8.646;2023-03-25T14:30:03;99818.16;;;13.91;nan
55685;BME280;41883;49.544;8.646;2023-03-25T14:37:42;99819.47;;;14.52;nan
55685;BME280;41883;49.544;8.646;2023-03-25T14:42:58;99820.56;;;14.36;nan
55685;BME280;41883;49.544;8.646;2023-03-25T14:47:59;99803.56;;;14.30;nan
55685;BME280;41883;49.544;8.646;2023-03-25T14:52:53;99809.19;;;14.49;nan
55685;BME280;41883;49.544;8.646;2023-03-25T14:55:21;99801.31;;;14.34;nan
55685;BME280;41883;49.544;8.646;2023-03-25T14:57:50;99811.25;;;14.18;nan
55685;BME280;41883;49.544;8.646;2023-03-25T15:00:24;99804.13;;;14.26;nan
55685;BME280;41883;49.544;8.646;2023-03-25T15:03:03;99805.25;;;14.38;nan
55685;BME280;41883;49.544;8.646;2023-03-25T15:05:32;99803.69;;;14.50;nan
55685;BME280;41883;49.544;8.646;2023-03-25T15:07:59;99806.03;;;14.60;nan
55685;BME280;41883;49.544;8.646;2023-03-25T15:10:38;99806.25;;;14.37;nan
55685;BME280;41883;49.544;8.646;2023-03-25T15:13:06;99813.34;;;14.30;nan
55685;BME280;41883;49.544;8.646;2023-03-25T15:23:40;99806.88;;;14.39;nan
55685;BME280;41883;49.544;8.646;2023-03-25T15:26:13;99818.19;;;14.19;nan
55685;BME280;41883;49.544;8.646;2023-03-25T15:41:50;99798.28;;;13.66;nan
55685;BME280;41883;49.544;8.646;2023-03-25T15:54:16;99794.56;;;13.38;nan
55685;BME280;41883;49.544;8.646;2023-03-25T15:56:46;99796.78;;;13.35;nan
55685;BME280;41883;49.544;8.646;2023-03-25T16:01:42;99795.56;;;13.37;nan
55685;BME280;41883;49.544;8.646;2023-03-25T16:04:23;99781.66;;;13.35;nan
55685;BME280;41883;49.544;8.646;2023-03-25T16:06:52;99782.59;;;13.28;nan